Time;durP1;ratioP1;P1;durP2;ratioP2;P2;SDS_P1;SDS_P2;PMS_P1;PMS_P2;Temp;Humidity;BMP_temperature;BMP_pressure;BME280_temperature;BME280_humidity;BME280_pressure;Samples;Min_cycle;Max_cycle;Signal;HPM_P1;HPM_P2
2021/01/27 00:02:43;;;;;;;1.89;1.60;;;;;;;18.31;44.38;100769.96;;;;-58
2021/01/27 00:05:43;;;;;;;1.55;1.45;;;;;;;18.29;44.34;100760.20;;;;-52
2021/01/27 00:08:43;;;;;;;1.72;1.62;;;;;;;18.27;44.39;100757.40;;;;-52
2021/01/27 00:11:43;;;;;;;1.74;1.61;;;;;;;18.24;44.33;100763.78;;;;-51
2021/01/27 00:14:43;;;;;;;1.75;1.61;;;;;;;18.22;44.39;100759.52;;;;-52
2021/01/27 00:17:43;;;;;;;1.90;1.66;;;;;;;18.21;44.33;100753.33;;;;-58
2021/01/27 00:20:43;;;;;;;1.67;1.57;;;;;;;18.19;44.40;100758.48;;;;-57
2021/01/27 00:23:43;;;;;;;7.99;1.60;;;;;;;18.17;44.38;100757.48;;;;-57
2021/01/27 00:26:43;;;;;;;1.67;1.57;;;;;;;18.15;44.29;100740.16;;;;-54
2021/01/27 00:29:43;;;;;;;2.02;1.69;;;;;;;18.14;44.36;100732.95;;;;-60
2021/01/27 00:32:43;;;;;;;1.84;1.61;;;;;;;18.12;44.34;100727.88;;;;-57
2021/01/27 00:35:43;;;;;;;1.70;1.60;;;;;;;18.10;44.40;100733.28;;;;-60
2021/01/27 00:38:43;;;;;;;1.67;1.57;;;;;;;18.08;44.32;100729.52;;;;-54
2021/01/27 00:41:43;;;;;;;1.68;1.44;;;;;;;18.07;44.48;100732.73;;;;-53
2021/01/27 00:44:43;;;;;;;1.93;1.50;;;;;;;18.04;44.45;100730.19;;;;-54
2021/01/27 00:47:43;;;;;;;2.03;1.66;;;;;;;18.02;44.31;100725.20;;;;-53
2021/01/27 00:50:43;;;;;;;1.70;1.55;;;;;;;18.00;44.37;100724.44;;;;-52
2021/01/27 00:53:43;;;;;;;1.93;1.72;;;;;;;17.98;44.41;100724.81;;;;-52
2021/01/27 00:56:43;;;;;;;2.05;1.62;;;;;;;17.96;44.40;100722.66;;;;-61
2021/01/27 00:59:43;;;;;;;1.70;1.60;;;;;;;17.94;44.39;100719.55;;;;-58
2021/01/27 01:02:43;;;;;;;1.85;1.75;;;;;;;17.93;44.42;100726.57;;;;-53
2021/01/27 01:05:43;;;;;;;1.83;1.69;;;;;;;17.92;44.45;100716.52;;;;-54
2021/01/27 01:08:43;;;;;;;1.75;1.65;;;;;;;17.89;44.45;100698.88;;;;-54
2021/01/27 01:11:43;;;;;;;1.83;1.66;;;;;;;17.87;44.43;100690.34;;;;-57
2021/01/27 01:14:43;;;;;;;1.85;1.70;;;;;;;17.86;44.40;100692.17;;;;-60
2021/01/27 01:17:43;;;;;;;1.73;1.61;;;;;;;17.85;44.49;100696.70;;;;-60
2021/01/27 01:20:43;;;;;;;1.75;1.61;;;;;;;17.83;44.44;100704.70;;;;-53
2021/01/27 01:23:43;;;;;;;1.88;1.68;;;;;;;17.81;44.50;100706.33;;;;-58
2021/01/27 01:26:43;;;;;;;1.71;1.61;;;;;;;17.78;44.50;100704.19;;;;-52
2021/01/27 01:29:43;;;;;;;1.82;1.71;;;;;;;17.77;44.49;100706.67;;;;-52
2021/01/27 01:32:43;;;;;;;1.75;1.59;;;;;;;17.77;44.46;100698.89;;;;-54
2021/01/27 01:35:43;;;;;;;1.89;1.67;;;;;;;17.74;44.53;100702.02;;;;-52
2021/01/27 01:38:44;;;;;;;1.70;1.60;;;;;;;17.73;44.44;100702.95;;;;-51
2021/01/27 01:41:43;;;;;;;1.71;1.61;;;;;;;17.72;44.46;100697.97;;;;-57
2021/01/27 01:44:43;;;;;;;1.75;1.64;;;;;;;17.70;44.52;100693.92;;;;-58
2021/01/27 01:47:43;;;;;;;1.79;1.69;;;;;;;17.68;44.46;100693.07;;;;-59
2021/01/27 01:50:43;;;;;;;1.93;1.73;;;;;;;17.66;44.48;100694.17;;;;-52
2021/01/27 01:53:43;;;;;;;1.67;1.57;;;;;;;17.66;44.46;100693.84;;;;-59
2021/01/27 01:56:43;;;;;;;2.05;1.79;;;;;;;17.64;44.51;100701.64;;;;-61
2021/01/27 01:59:43;;;;;;;1.70;1.60;;;;;;;17.61;44.45;100697.87;;;;-57
2021/01/27 02:02:43;;;;;;;1.78;1.63;;;;;;;17.60;44.49;100696.73;;;;-54
2021/01/27 02:05:43;;;;;;;1.84;1.69;;;;;;;17.59;44.46;100696.38;;;;-54
2021/01/27 02:08:43;;;;;;;1.91;1.79;;;;;;;17.58;44.52;100691.75;;;;-53
2021/01/27 02:11:43;;;;;;;1.84;1.70;;;;;;;17.56;44.47;100688.16;;;;-54
2021/01/27 02:14:43;;;;;;;1.81;1.71;;;;;;;17.56;44.48;100686.05;;;;-54
2021/01/27 02:17:43;;;;;;;1.75;1.65;;;;;;;17.53;44.49;100687.76;;;;-54
2021/01/27 02:20:43;;;;;;;1.92;1.79;;;;;;;17.53;44.42;100685.41;;;;-49
2021/01/27 02:23:43;;;;;;;1.89;1.79;;;;;;;17.51;44.43;100674.52;;;;-55
2021/01/27 02:26:43;;;;;;;1.97;1.80;;;;;;;17.52;44.47;100671.55;;;;-49
2021/01/27 02:29:43;;;;;;;1.87;1.77;;;;;;;17.49;44.47;100674.34;;;;-49
2021/01/27 02:33:43;;;;;;;1.97;1.82;;;;;;;17.47;44.46;100668.28;;;;-49
2021/01/27 02:36:43;;;;;;;2.03;1.83;;;;;;;17.46;44.48;100667.63;;;;-49
2021/01/27 02:39:43;;;;;;;2.11;1.83;;;;;;;17.44;44.48;100667.35;;;;-54
2021/01/27 02:42:43;;;;;;;1.70;1.60;;;;;;;17.44;44.54;100661.11;;;;-54
2021/01/27 02:45:43;;;;;;;1.80;1.70;;;;;;;17.42;44.48;100659.53;;;;-54
2021/01/27 02:48:43;;;;;;;1.91;1.75;;;;;;;17.42;44.47;100658.16;;;;-54
2021/01/27 02:51:43;;;;;;;2.13;1.80;;;;;;;17.40;44.51;100650.34;;;;-54
2021/01/27 02:54:43;;;;;;;1.79;1.69;;;;;;;17.39;44.45;100650.39;;;;-49
2021/01/27 02:57:43;;;;;;;1.85;1.65;;;;;;;17.38;44.49;100651.52;;;;-59
2021/01/27 03:00:43;;;;;;;1.80;1.70;;;;;;;17.36;44.54;100648.33;;;;-60
2021/01/27 03:03:43;;;;;;;2.09;1.66;;;;;;;17.35;44.48;100647.11;;;;-50
2021/01/27 03:06:43;;;;;;;2.37;1.84;;;;;;;17.34;44.52;100644.89;;;;-49
2021/01/27 03:09:43;;;;;;;1.80;1.70;;;;;;;17.33;44.52;100642.66;;;;-49
2021/01/27 03:12:43;;;;;;;1.68;1.58;;;;;;;17.32;44.48;100647.03;;;;-50
2021/01/27 03:15:43;;;;;;;1.73;1.63;;;;;;;17.31;44.52;100646.03;;;;-49
2021/01/27 03:18:43;;;;;;;2.20;1.83;;;;;;;17.30;44.56;100648.21;;;;-49
2021/01/27 03:21:43;;;;;;;1.87;1.71;;;;;;;17.29;44.53;100641.89;;;;-60
2021/01/27 03:24:43;;;;;;;1.79;1.69;;;;;;;17.27;44.59;100631.73;;;;-59
2021/01/27 03:27:43;;;;;;;1.79;1.69;;;;;;;17.27;44.53;100629.30;;;;-49
2021/01/27 03:30:43;;;;;;;1.64;1.54;;;;;;;17.25;44.51;100623.67;;;;-52
2021/01/27 03:33:43;;;;;;;1.99;1.83;;;;;;;17.24;44.53;100631.05;;;;-52
2021/01/27 03:36:44;;;;;;;1.80;1.70;;;;;;;17.24;44.53;100630.28;;;;-52
2021/01/27 03:39:43;;;;;;;1.86;1.73;;;;;;;17.23;44.50;100622.42;;;;-53
2021/01/27 03:42:43;;;;;;;2.01;1.83;;;;;;;17.21;44.59;100615.66;;;;-54
2021/01/27 03:45:43;;;;;;;1.67;1.57;;;;;;;17.20;44.59;100612.95;;;;-54
2021/01/27 03:48:43;;;;;;;1.73;1.63;;;;;;;17.19;44.56;100604.05;;;;-60
2021/01/27 03:51:43;;;;;;;1.89;1.79;;;;;;;17.18;44.61;100604.34;;;;-50
2021/01/27 03:54:43;;;;;;;1.79;1.69;;;;;;;17.17;44.60;100598.66;;;;-49
2021/01/27 03:57:43;;;;;;;1.92;1.70;;;;;;;17.16;44.64;100592.02;;;;-53
2021/01/27 04:00:46;;;;;;;1.83;1.72;;;;;;;17.15;44.62;100578.95;;;;-54
2021/01/27 04:03:43;;;;;;;1.89;1.70;;;;;;;17.15;44.53;100573.36;;;;-49
2021/01/27 04:06:43;;;;;;;1.86;1.71;;;;;;;17.14;44.59;100560.56;;;;-49
2021/01/27 04:09:43;;;;;;;2.09;1.89;;;;;;;17.13;44.61;100546.44;;;;-52
2021/01/27 04:12:43;;;;;;;2.39;1.89;;;;;;;17.12;44.62;100542.07;;;;-52
2021/01/27 04:15:43;;;;;;;1.71;1.61;;;;;;;17.11;44.60;100537.91;;;;-54
2021/01/27 04:18:43;;;;;;;2.04;1.83;;;;;;;17.10;44.58;100538.06;;;;-54
2021/01/27 04:21:43;;;;;;;1.95;1.80;;;;;;;17.09;44.55;100536.00;;;;-49
2021/01/27 04:24:43;;;;;;;1.97;1.80;;;;;;;17.09;44.56;100539.33;;;;-50
2021/01/27 04:27:43;;;;;;;1.85;1.75;;;;;;;17.07;44.66;100538.89;;;;-49
2021/01/27 04:30:43;;;;;;;2.14;1.94;;;;;;;17.07;44.59;100536.54;;;;-49
2021/01/27 04:33:43;;;;;;;1.99;1.79;;;;;;;17.07;44.60;100537.19;;;;-49
2021/01/27 04:36:43;;;;;;;1.93;1.73;;;;;;;17.05;44.64;100531.72;;;;-48
2021/01/27 04:39:43;;;;;;;1.89;1.79;;;;;;;17.04;44.55;100525.65;;;;-49
2021/01/27 04:42:43;;;;;;;1.87;1.72;;;;;;;17.03;44.63;100527.08;;;;-54
2021/01/27 04:45:43;;;;;;;1.95;1.70;;;;;;;17.01;44.61;100519.91;;;;-54
2021/01/27 04:48:43;;;;;;;1.85;1.75;;;;;;;17.01;44.63;100512.63;;;;-57
2021/01/27 04:51:43;;;;;;;1.81;1.70;;;;;;;17.00;44.63;100500.48;;;;-60
2021/01/27 04:54:43;;;;;;;1.89;1.77;;;;;;;16.99;44.56;100500.20;;;;-59
2021/01/27 04:57:43;;;;;;;1.91;1.79;;;;;;;16.98;44.61;100500.53;;;;-61
2021/01/27 05:00:43;;;;;;;1.99;1.77;;;;;;;16.97;44.59;100502.11;;;;-54
2021/01/27 05:03:43;;;;;;;2.51;1.90;;;;;;;16.96;44.57;100499.77;;;;-54
2021/01/27 05:08:43;;;;;;;1.86;1.76;;;;;;;16.94;44.64;100506.77;;;;-53
2021/01/27 05:11:43;;;;;;;1.94;1.80;;;;;;;16.94;44.59;100511.22;;;;-54
2021/01/27 05:14:43;;;;;;;1.92;1.81;;;;;;;16.93;44.59;100512.84;;;;-58
2021/01/27 05:17:43;;;;;;;2.83;1.68;;;;;;;16.93;44.65;100500.75;;;;-57
2021/01/27 05:20:43;;;;;;;8.22;3.15;;;;;;;16.81;42.83;100497.38;;;;-58
2021/01/27 05:23:43;;;;;;;4.03;2.99;;;;;;;16.59;41.61;100488.05;;;;-49
2021/01/27 05:26:43;;;;;;;5.28;3.81;;;;;;;16.36;40.59;100486.09;;;;-51
2021/01/27 05:29:43;;;;;;;5.15;3.75;;;;;;;16.14;40.41;100476.42;;;;-50
2021/01/27 05:32:43;;;;;;;6.40;3.74;;;;;;;16.25;41.57;100478.84;;;;-51
2021/01/27 05:35:43;;;;;;;3.82;3.22;;;;;;;16.35;42.43;100477.48;;;;-52
2021/01/27 05:38:43;;;;;;;4.16;3.07;;;;;;;16.43;42.79;100476.42;;;;-61
2021/01/27 05:41:43;;;;;;;4.23;3.10;;;;;;;16.48;42.99;100470.15;;;;-55
2021/01/27 05:44:43;;;;;;;3.00;2.70;;;;;;;16.51;43.20;100458.86;;;;-53
2021/01/27 05:47:43;;;;;;;4.29;2.71;;;;;;;16.55;43.34;100447.45;;;;-54
2021/01/27 05:50:43;;;;;;;5.99;2.87;;;;;;;16.58;43.38;100447.44;;;;-57
2021/01/27 05:53:43;;;;;;;5.37;2.73;;;;;;;16.59;43.46;100442.11;;;;-52
2021/01/27 05:56:43;;;;;;;3.95;2.75;;;;;;;16.60;43.42;100436.05;;;;-52
2021/01/27 05:59:43;;;;;;;3.31;2.80;;;;;;;16.59;43.55;100437.02;;;;-52
2021/01/27 06:02:43;;;;;;;3.81;2.81;;;;;;;16.59;43.49;100441.86;;;;-55
2021/01/27 06:05:43;;;;;;;3.03;2.58;;;;;;;16.60;43.46;100448.26;;;;-55
2021/01/27 06:08:43;;;;;;;3.14;2.48;;;;;;;16.59;43.53;100444.94;;;;-55
2021/01/27 06:11:43;;;;;;;4.19;2.59;;;;;;;16.60;43.62;100440.98;;;;-55
2021/01/27 06:14:43;;;;;;;3.79;2.69;;;;;;;16.60;43.58;100444.05;;;;-54
2021/01/27 06:17:43;;;;;;;3.59;2.49;;;;;;;16.59;43.65;100445.83;;;;-55
2021/01/27 06:20:43;;;;;;;2.94;2.36;;;;;;;16.59;43.64;100439.84;;;;-54
2021/01/27 06:23:43;;;;;;;2.65;2.43;;;;;;;16.58;43.67;100439.03;;;;-52
2021/01/27 06:28:43;;;;;;;2.83;2.34;;;;;;;16.57;43.75;100438.84;;;;-52
2021/01/27 06:31:43;;;;;;;2.82;2.43;;;;;;;16.56;43.74;100431.71;;;;-52
2021/01/27 06:35:43;;;;;;;2.78;2.42;;;;;;;16.55;43.80;100425.20;;;;-52
2021/01/27 06:38:43;;;;;;;4.76;2.23;;;;;;;16.55;43.81;100421.00;;;;-52
2021/01/27 06:41:43;;;;;;;4.73;2.47;;;;;;;16.54;43.83;100412.50;;;;-53
2021/01/27 06:44:43;;;;;;;2.56;2.33;;;;;;;16.53;43.82;100411.98;;;;-54
2021/01/27 06:47:43;;;;;;;2.87;2.38;;;;;;;16.54;43.89;100412.15;;;;-54
2021/01/27 06:52:43;;;;;;;2.41;2.21;;;;;;;16.52;43.92;100418.38;;;;-54
2021/01/27 06:56:43;;;;;;;2.50;2.29;;;;;;;16.52;43.92;100422.34;;;;-53
2021/01/27 06:59:45;;;;;;;2.52;2.30;;;;;;;16.53;43.93;100428.65;;;;-55
2021/01/27 07:03:43;;;;;;;2.53;2.33;;;;;;;16.52;43.95;100431.07;;;;-55
2021/01/27 07:06:43;;;;;;;2.42;2.20;;;;;;;16.51;43.99;100431.28;;;;-55
2021/01/27 07:09:43;;;;;;;2.51;2.30;;;;;;;16.52;43.99;100436.81;;;;-55
2021/01/27 07:14:43;;;;;;;3.19;2.25;;;;;;;16.52;44.06;100437.03;;;;-55
2021/01/27 07:17:43;;;;;;;3.00;2.30;;;;;;;16.50;44.07;100438.72;;;;-55
2021/01/27 07:20:43;;;;;;;2.59;2.39;;;;;;;16.50;44.04;100446.89;;;;-55
2021/01/27 07:23:43;;;;;;;2.91;2.33;;;;;;;16.50;44.00;100448.67;;;;-55
2021/01/27 07:26:43;;;;;;;2.28;2.08;;;;;;;16.49;44.04;100451.30;;;;-57
2021/01/27 07:29:43;;;;;;;2.41;2.21;;;;;;;16.50;44.02;100451.50;;;;-55
2021/01/27 07:32:43;;;;;;;2.48;2.17;;;;;;;16.49;44.08;100457.70;;;;-56
2021/01/27 07:35:43;;;;;;;2.75;2.05;;;;;;;16.49;44.10;100459.47;;;;-57
2021/01/27 07:38:43;;;;;;;2.20;2.00;;;;;;;16.48;44.12;100453.41;;;;-56
2021/01/27 07:41:43;;;;;;;2.44;2.19;;;;;;;16.49;44.09;100461.82;;;;-56
2021/01/27 07:44:44;;;;;;;2.51;2.30;;;;;;;16.49;44.14;100467.32;;;;-55
2021/01/27 07:47:46;;;;;;;2.75;2.19;;;;;;;16.49;44.05;100467.16;;;;-56
2021/01/27 07:50:43;;;;;;;2.26;2.06;;;;;;;16.49;44.12;100459.31;;;;-56
2021/01/27 07:53:43;;;;;;;2.40;2.20;;;;;;;16.49;44.18;100454.22;;;;-55
2021/01/27 07:56:43;;;;;;;2.47;2.20;;;;;;;16.49;44.09;100460.20;;;;-55
2021/01/27 07:59:43;;;;;;;2.62;2.13;;;;;;;16.48;44.16;100451.63;;;;-54
2021/01/27 08:02:43;;;;;;;2.68;2.16;;;;;;;16.47;44.21;100453.94;;;;-54
2021/01/27 08:05:43;;;;;;;2.65;2.13;;;;;;;16.47;44.14;100458.06;;;;-55
2021/01/27 08:08:43;;;;;;;2.32;2.11;;;;;;;16.46;44.15;100459.35;;;;-55
2021/01/27 08:11:43;;;;;;;2.19;1.98;;;;;;;16.46;44.18;100454.58;;;;-55
2021/01/27 08:14:43;;;;;;;2.87;2.10;;;;;;;16.46;44.19;100445.68;;;;-55
2021/01/27 08:17:43;;;;;;;2.41;2.07;;;;;;;16.46;44.14;100439.45;;;;-55
2021/01/27 08:20:43;;;;;;;2.41;1.96;;;;;;;16.45;44.17;100442.01;;;;-55
2021/01/27 08:23:43;;;;;;;2.27;2.06;;;;;;;16.45;44.16;100447.51;;;;-54
2021/01/27 08:26:43;;;;;;;2.59;2.03;;;;;;;16.45;44.16;100455.59;;;;-55
2021/01/27 08:29:43;;;;;;;2.37;2.04;;;;;;;16.45;44.19;100448.56;;;;-55
2021/01/27 08:32:45;;;;;;;2.33;2.09;;;;;;;16.46;44.18;100453.20;;;;-54
2021/01/27 08:35:43;;;;;;;2.35;2.15;;;;;;;16.44;44.21;100442.41;;;;-52
2021/01/27 08:38:43;;;;;;;2.09;1.89;;;;;;;16.44;44.21;100436.09;;;;-53
2021/01/27 08:41:43;;;;;;;2.43;2.21;;;;;;;16.45;44.23;100436.98;;;;-52
2021/01/27 08:44:43;;;;;;;2.68;2.14;;;;;;;16.48;44.46;100437.22;;;;-55
2021/01/27 08:47:43;;;;;;;3.09;2.19;;;;;;;16.51;44.74;100445.20;;;;-58
2021/01/27 08:50:43;;;;;;;3.51;2.03;;;;;;;16.56;45.17;100436.41;;;;-58
2021/01/27 08:53:43;;;;;;;2.09;1.89;;;;;;;16.63;45.43;100432.23;;;;-53
2021/01/27 08:56:43;;;;;;;3.77;2.05;;;;;;;16.72;45.44;100426.55;;;;-51
2021/01/27 08:59:43;;;;;;;4.77;2.37;;;;;;;16.77;45.05;100423.09;;;;-51
2021/01/27 09:02:43;;;;;;;5.54;2.20;;;;;;;16.84;45.21;100415.38;;;;-54
2021/01/27 09:05:43;;;;;;;2.66;1.96;;;;;;;16.91;45.55;100413.94;;;;-55
2021/01/27 09:08:43;;;;;;;3.35;2.08;;;;;;;16.96;45.13;100410.23;;;;-55
2021/01/27 09:11:43;;;;;;;2.22;1.95;;;;;;;17.03;45.07;100412.36;;;;-55
2021/01/27 09:14:43;;;;;;;3.44;2.01;;;;;;;17.08;45.06;100408.48;;;;-56
2021/01/27 09:17:43;;;;;;;2.16;1.87;;;;;;;17.12;45.01;100408.30;;;;-55
2021/01/27 09:20:43;;;;;;;2.10;1.88;;;;;;;17.17;45.03;100405.53;;;;-55
2021/01/27 09:23:43;;;;;;;3.11;1.84;;;;;;;17.23;44.87;100405.95;;;;-55
2021/01/27 09:26:43;;;;;;;2.38;1.80;;;;;;;17.27;44.80;100409.57;;;;-55
2021/01/27 09:29:43;;;;;;;2.87;1.81;;;;;;;17.32;44.78;100406.31;;;;-55
2021/01/27 09:32:43;;;;;;;2.79;1.88;;;;;;;17.36;44.77;100404.19;;;;-55
2021/01/27 09:35:43;;;;;;;1.82;1.61;;;;;;;17.40;44.74;100401.41;;;;-54
2021/01/27 09:38:43;;;;;;;2.59;1.78;;;;;;;17.45;44.78;100392.58;;;;-55
2021/01/27 09:41:43;;;;;;;2.57;1.96;;;;;;;17.51;44.77;100392.06;;;;-55
2021/01/27 09:44:43;;;;;;;4.16;1.79;;;;;;;17.57;44.77;100387.20;;;;-52
2021/01/27 09:47:43;;;;;;;1.87;1.69;;;;;;;17.63;44.95;100382.10;;;;-58
2021/01/27 09:50:43;;;;;;;3.27;1.87;;;;;;;17.69;45.21;100380.31;;;;-50
2021/01/27 09:53:44;;;;;;;3.83;1.90;;;;;;;17.73;45.22;100372.18;;;;-59
2021/01/27 09:56:43;;;;;;;2.19;1.75;;;;;;;17.79;45.34;100370.39;;;;-60
2021/01/27 09:59:43;;;;;;;1.83;1.73;;;;;;;17.84;45.47;100364.95;;;;-59
2021/01/27 10:02:43;;;;;;;1.91;1.75;;;;;;;17.89;45.26;100372.16;;;;-58
2021/01/27 10:05:43;;;;;;;1.80;1.70;;;;;;;17.94;45.49;100380.72;;;;-51
2021/01/27 10:08:43;;;;;;;4.25;1.73;;;;;;;18.03;45.30;100381.22;;;;-56
2021/01/27 10:11:43;;;;;;;2.04;1.69;;;;;;;18.04;45.07;100384.16;;;;-56
2021/01/27 10:14:43;;;;;;;2.07;1.63;;;;;;;18.07;44.89;100385.31;;;;-55
2021/01/27 10:17:43;;;;;;;2.55;1.95;;;;;;;18.11;44.97;100385.45;;;;-51
2021/01/27 10:20:43;;;;;;;1.78;1.68;;;;;;;18.14;45.09;100387.36;;;;-53
2021/01/27 10:23:43;;;;;;;2.53;1.78;;;;;;;18.18;45.07;100387.13;;;;-54
2021/01/27 10:26:43;;;;;;;2.44;1.78;;;;;;;18.21;44.92;100386.28;;;;-56
2021/01/27 10:29:43;;;;;;;4.29;1.79;;;;;;;18.23;44.88;100385.90;;;;-52
2021/01/27 10:32:45;;;;;;;3.41;1.81;;;;;;;18.27;44.69;100388.13;;;;-53
2021/01/27 10:35:43;;;;;;;3.97;1.87;;;;;;;18.30;44.75;100385.39;;;;-51
2021/01/27 10:38:43;;;;;;;4.63;1.92;;;;;;;18.31;44.48;100374.14;;;;-57
2021/01/27 10:41:43;;;;;;;2.77;1.80;;;;;;;18.33;44.47;100373.11;;;;-56
2021/01/27 10:44:43;;;;;;;2.82;1.69;;;;;;;18.35;44.42;100372.40;;;;-56
2021/01/27 10:47:43;;;;;;;3.32;1.78;;;;;;;18.36;44.48;100365.84;;;;-55
2021/01/27 10:50:44;;;;;;;3.59;1.85;;;;;;;18.38;44.39;100351.16;;;;-51
2021/01/27 10:53:43;;;;;;;3.93;1.99;;;;;;;18.35;43.68;100354.63;;;;-51
2021/01/27 10:56:43;;;;;;;6.94;2.08;;;;;;;18.37;43.95;100350.42;;;;-56
2021/01/27 10:59:43;;;;;;;3.46;2.02;;;;;;;18.43;44.39;100350.24;;;;-59
2021/01/27 11:02:43;;;;;;;2.53;1.67;;;;;;;18.46;44.50;100360.72;;;;-58
2021/01/27 11:05:43;;;;;;;2.31;1.76;;;;;;;18.51;44.53;100363.59;;;;-58
2021/01/27 11:08:44;;;;;;;4.63;1.94;;;;;;;18.54;44.25;100357.55;;;;-59
2021/01/27 11:11:43;;;;;;;3.61;1.90;;;;;;;18.56;44.32;100347.02;;;;-60
2021/01/27 11:14:43;;;;;;;2.55;1.80;;;;;;;18.61;44.47;100340.88;;;;-52
2021/01/27 11:17:43;;;;;;;3.29;1.95;;;;;;;18.64;44.25;100347.49;;;;-52
2021/01/27 11:20:43;;;;;;;5.33;1.67;;;;;;;18.64;44.17;100350.25;;;;-52
2021/01/27 11:23:43;;;;;;;2.68;1.79;;;;;;;18.66;44.14;100353.77;;;;-51
2021/01/27 11:26:43;;;;;;;2.55;1.66;;;;;;;18.67;44.08;100352.78;;;;-52
2021/01/27 11:29:43;;;;;;;2.58;1.70;;;;;;;18.67;44.02;100355.30;;;;-51
2021/01/27 11:32:43;;;;;;;5.05;1.69;;;;;;;18.67;44.05;100352.05;;;;-52
2021/01/27 11:35:43;;;;;;;1.87;1.55;;;;;;;18.68;43.99;100349.06;;;;-59
2021/01/27 11:38:43;;;;;;;3.40;1.72;;;;;;;18.69;43.94;100332.66;;;;-48
2021/01/27 11:53:17;;;;;;;2.31;1.80;;;;;;;18.73;43.06;100324.41;;;;-48
2021/01/27 11:56:17;;;;;;;2.68;1.80;;;;;;;18.74;42.76;100318.92;;;;-46
2021/01/27 11:59:17;;;;;;;4.23;1.80;;;;;;;18.76;43.09;100311.63;;;;-53
2021/01/27 12:02:17;;;;;;;2.45;1.78;;;;;;;18.79;43.08;100307.20;;;;-51
2021/01/27 12:05:17;;;;;;;2.71;1.79;;;;;;;18.80;43.26;100289.91;;;;-56
2021/01/27 12:08:17;;;;;;;2.57;1.60;;;;;;;18.81;43.36;100273.12;;;;-56
2021/01/27 12:11:17;;;;;;;1.99;1.69;;;;;;;18.82;43.31;100252.09;;;;-55
2021/01/27 12:14:17;;;;;;;2.34;1.63;;;;;;;18.83;43.35;100240.41;;;;-57
2021/01/27 12:17:17;;;;;;;2.12;1.71;;;;;;;18.83;43.41;100229.94;;;;-56
2021/01/27 12:20:17;;;;;;;2.11;1.71;;;;;;;18.84;43.43;100224.33;;;;-57
2021/01/27 12:23:17;;;;;;;1.99;1.76;;;;;;;18.86;43.38;100225.75;;;;-56
2021/01/27 12:26:17;;;;;;;1.81;1.63;;;;;;;18.87;43.36;100224.69;;;;-51
2021/01/27 12:29:17;;;;;;;1.93;1.57;;;;;;;18.88;43.35;100228.49;;;;-56
2021/01/27 12:32:17;;;;;;;2.75;1.50;;;;;;;18.88;43.32;100226.78;;;;-53
2021/01/27 12:35:17;;;;;;;1.53;1.43;;;;;;;18.89;43.39;100227.95;;;;-55
2021/01/27 12:38:17;;;;;;;1.73;1.54;;;;;;;18.90;43.38;100228.75;;;;-56
2021/01/27 12:41:17;;;;;;;1.70;1.60;;;;;;;18.91;43.37;100226.58;;;;-56
2021/01/27 12:44:17;;;;;;;2.07;1.50;;;;;;;18.93;43.38;100226.75;;;;-53
2021/01/27 12:47:22;;;;;;;2.08;1.53;;;;;;;18.93;43.38;100225.53;;;;-54
2021/01/27 12:50:17;;;;;;;1.61;1.40;;;;;;;18.94;43.33;100225.12;;;;-51
2021/01/27 12:53:17;;;;;;;5.17;1.70;;;;;;;18.96;43.38;100215.79;;;;-56
2021/01/27 12:56:17;;;;;;;2.31;1.71;;;;;;;18.95;43.00;100215.80;;;;-56
2021/01/27 12:59:17;;;;;;;4.17;1.75;;;;;;;18.96;43.33;100210.34;;;;-55
2021/01/27 13:02:17;;;;;;;2.19;1.70;;;;;;;19.02;43.64;100212.81;;;;-45
2021/01/27 13:05:17;;;;;;;3.88;1.83;;;;;;;19.04;43.85;100210.39;;;;-51
2021/01/27 13:08:17;;;;;;;1.89;1.53;;;;;;;19.07;43.89;100205.67;;;;-49
2021/01/27 13:11:17;;;;;;;1.60;1.50;;;;;;;19.10;43.88;100206.03;;;;-47
2021/01/27 13:14:17;;;;;;;3.76;1.51;;;;;;;19.11;43.93;100198.22;;;;-58
2021/01/27 13:17:17;;;;;;;3.32;1.79;;;;;;;19.14;44.02;100195.64;;;;-50
2021/01/27 13:20:17;;;;;;;3.37;1.66;;;;;;;19.16;44.00;100191.11;;;;-45
2021/01/27 13:23:17;;;;;;;1.98;1.60;;;;;;;19.17;44.07;100189.96;;;;-44
2021/01/27 13:26:17;;;;;;;4.09;1.70;;;;;;;19.20;44.06;100197.30;;;;-52
2021/01/27 13:29:17;;;;;;;1.95;1.47;;;;;;;19.21;44.03;100195.02;;;;-47
2021/01/27 13:32:17;;;;;;;2.37;1.59;;;;;;;19.24;44.08;100195.77;;;;-51
2021/01/27 13:35:18;;;;;;;6.70;1.57;;;;;;;19.24;43.93;100196.02;;;;-59
2021/01/27 13:38:17;;;;;;;2.93;1.57;;;;;;;19.26;44.04;100191.47;;;;-50
2021/01/27 13:41:17;;;;;;;2.00;1.69;;;;;;;19.28;43.99;100189.84;;;;-53
2021/01/27 13:44:18;;;;;;;2.13;1.65;;;;;;;19.29;43.97;100185.93;;;;-57
2021/01/27 13:47:17;;;;;;;1.68;1.58;;;;;;;19.30;44.01;100183.52;;;;-57
2021/01/27 13:50:17;;;;;;;3.58;1.57;;;;;;;19.29;43.51;100187.80;;;;-53
2021/01/27 13:53:17;;;;;;;3.09;1.85;;;;;;;19.27;43.19;100183.98;;;;-46
2021/01/27 13:56:17;;;;;;;5.14;1.75;;;;;;;19.28;43.39;100184.97;;;;-61
2021/01/27 13:59:17;;;;;;;2.68;1.68;;;;;;;19.30;43.31;100189.75;;;;-53
2021/01/27 14:02:17;;;;;;;3.23;1.67;;;;;;;19.32;43.67;100196.84;;;;-57
2021/01/27 14:05:20;;;;;;;5.01;1.98;;;;;;;19.33;43.65;100198.55;;;;-54
2021/01/27 14:08:17;;;;;;;3.79;1.80;;;;;;;19.35;43.83;100197.66;;;;-52
2021/01/27 14:11:17;;;;;;;3.19;1.71;;;;;;;19.38;43.91;100197.24;;;;-54
2021/01/27 14:14:17;;;;;;;5.29;1.67;;;;;;;19.39;43.72;100197.27;;;;-55
2021/01/27 14:17:17;;;;;;;5.47;1.70;;;;;;;19.40;43.83;100193.13;;;;-54
2021/01/27 14:20:17;;;;;;;3.73;1.76;;;;;;;19.44;43.91;100189.47;;;;-51
2021/01/27 14:23:17;;;;;;;7.56;1.82;;;;;;;19.45;44.01;100185.65;;;;-54
2021/01/27 14:26:17;;;;;;;4.25;1.60;;;;;;;19.47;44.02;100181.35;;;;-51
2021/01/27 14:29:17;;;;;;;3.14;1.46;;;;;;;19.48;44.19;100183.61;;;;-50
2021/01/27 14:32:17;;;;;;;2.51;1.50;;;;;;;19.49;44.09;100186.88;;;;-52
2021/01/27 14:35:17;;;;;;;2.41;1.67;;;;;;;19.49;44.16;100188.59;;;;-55
2021/01/27 14:38:17;;;;;;;2.33;1.46;;;;;;;19.51;44.15;100190.88;;;;-54
2021/01/27 14:41:17;;;;;;;3.20;1.50;;;;;;;19.51;44.20;100187.86;;;;-53
2021/01/27 14:44:17;;;;;;;1.64;1.49;;;;;;;19.54;44.11;100189.25;;;;-58
2021/01/27 14:47:17;;;;;;;3.81;1.36;;;;;;;19.57;44.13;100189.67;;;;-58
2021/01/27 14:50:17;;;;;;;2.28;1.50;;;;;;;19.58;44.24;100194.45;;;;-54
2021/01/27 14:53:17;;;;;;;1.64;1.35;;;;;;;19.56;44.37;100195.82;;;;-52
2021/01/27 14:56:17;;;;;;;2.18;1.57;;;;;;;19.59;44.30;100195.19;;;;-48
2021/01/27 14:59:17;;;;;;;2.25;1.43;;;;;;;19.61;44.42;100189.33;;;;-54
2021/01/27 15:02:20;;;;;;;2.66;1.49;;;;;;;19.63;44.51;100184.86;;;;-55
2021/01/27 15:05:18;;;;;;;3.32;1.67;;;;;;;19.64;44.34;100185.68;;;;-59
2021/01/27 15:08:17;;;;;;;1.72;1.45;;;;;;;19.67;44.42;100184.16;;;;-61
2021/01/27 15:11:17;;;;;;;1.52;1.41;;;;;;;19.68;44.41;100186.01;;;;-50
2021/01/27 15:14:17;;;;;;;3.17;1.37;;;;;;;19.68;44.41;100179.27;;;;-58
2021/01/27 15:17:17;;;;;;;1.52;1.25;;;;;;;19.69;44.43;100175.84;;;;-55
2021/01/27 15:20:17;;;;;;;2.59;1.47;;;;;;;19.70;44.54;100179.95;;;;-54
2021/01/27 15:23:17;;;;;;;1.78;1.39;;;;;;;19.73;44.37;100182.13;;;;-52
2021/01/27 15:26:17;;;;;;;1.51;1.41;;;;;;;19.73;44.38;100185.38;;;;-47
2021/01/27 15:29:18;;;;;;;2.55;1.58;;;;;;;19.73;44.46;100180.75;;;;-50
2021/01/27 15:32:17;;;;;;;1.43;1.30;;;;;;;19.74;44.51;100184.18;;;;-53
2021/01/27 15:35:17;;;;;;;1.62;1.41;;;;;;;19.77;44.57;100185.06;;;;-52
2021/01/27 15:38:17;;;;;;;1.40;1.30;;;;;;;19.77;44.60;100186.85;;;;-46
2021/01/27 15:41:17;;;;;;;1.41;1.31;;;;;;;19.78;44.52;100188.41;;;;-47
2021/01/27 15:44:17;;;;;;;1.53;1.40;;;;;;;19.78;44.52;100190.86;;;;-50
2021/01/27 15:47:17;;;;;;;1.85;1.49;;;;;;;19.79;44.54;100196.69;;;;-44
2021/01/27 15:50:17;;;;;;;1.70;1.40;;;;;;;19.80;44.52;100198.91;;;;-52
2021/01/27 15:53:17;;;;;;;1.67;1.41;;;;;;;19.84;44.53;100198.16;;;;-45
2021/01/27 15:56:19;;;;;;;1.66;1.31;;;;;;;19.83;44.55;100195.80;;;;-52
2021/01/27 15:59:17;;;;;;;1.57;1.39;;;;;;;19.84;44.14;100193.28;;;;-53
2021/01/27 16:02:17;;;;;;;1.91;1.36;;;;;;;19.82;43.89;100184.84;;;;-52
2021/01/27 16:05:17;;;;;;;2.73;1.31;;;;;;;19.81;43.95;100184.91;;;;-58
2021/01/27 16:08:17;;;;;;;1.71;1.38;;;;;;;19.80;43.95;100185.41;;;;-45
2021/01/27 16:11:17;;;;;;;1.51;1.40;;;;;;;19.81;44.06;100186.78;;;;-52
2021/01/27 16:14:17;;;;;;;3.49;1.45;;;;;;;19.82;44.03;100188.02;;;;-57
2021/01/27 16:17:17;;;;;;;4.88;1.27;;;;;;;19.81;43.77;100190.52;;;;-56
2021/01/27 16:20:18;;;;;;;1.70;1.37;;;;;;;19.81;43.71;100192.31;;;;-55
2021/01/27 16:23:17;;;;;;;1.48;1.30;;;;;;;19.79;43.67;100191.48;;;;-55
2021/01/27 16:26:17;;;;;;;2.75;1.30;;;;;;;19.79;43.63;100198.81;;;;-55
2021/01/27 16:29:17;;;;;;;1.91;1.40;;;;;;;19.78;43.61;100191.27;;;;-53
2021/01/27 16:32:17;;;;;;;2.67;1.41;;;;;;;19.79;43.52;100189.47;;;;-58
2021/01/27 16:35:17;;;;;;;2.62;1.40;;;;;;;19.78;43.56;100188.83;;;;-55
2021/01/27 16:38:17;;;;;;;2.35;1.30;;;;;;;19.77;43.55;100183.94;;;;-55
2021/01/27 16:41:17;;;;;;;1.44;1.30;;;;;;;19.76;43.53;100186.30;;;;-52
2021/01/27 16:44:17;;;;;;;1.85;1.47;;;;;;;19.77;43.46;100183.36;;;;-53
2021/01/27 16:47:17;;;;;;;1.95;1.47;;;;;;;19.76;43.52;100185.64;;;;-52
2021/01/27 16:50:17;;;;;;;1.40;1.30;;;;;;;19.76;43.47;100181.91;;;;-53
2021/01/27 16:53:17;;;;;;;1.39;1.29;;;;;;;19.74;43.47;100185.41;;;;-49
2021/01/27 16:56:18;;;;;;;1.42;1.32;;;;;;;19.78;43.79;100185.89;;;;-52
2021/01/27 16:59:17;;;;;;;1.77;1.43;;;;;;;19.80;44.00;100193.21;;;;-50
2021/01/27 17:02:17;;;;;;;2.13;1.46;;;;;;;19.81;44.04;100192.64;;;;-49
2021/01/27 17:05:31;;;;;;;2.15;1.31;;;;;;;19.83;44.31;100195.97;;;;-49
2021/01/27 17:08:17;;;;;;;2.52;1.54;;;;;;;19.86;44.30;100196.05;;;;-53